Biscayne Park, Florida
Current Conditions -  °F | °C
As of 6:53 PM on Sunday 25 Jan 2015 (Local Time) from KOPF Reporting Station
Clear Clear  
Wind Chill: 60°   Ceiling: Unl
Heat Index: 60°   Visibility: 10mi
Dew Point: 44°   Wind: 6mph
Humidity: 55%   Direction: 280°W
Pressure: 30.03"   Gusts: NA
Location:  25.9061°N, 80.1512°W
Report Text: KOPF 252353Z 28005KT 10SM CLR 16/07 A3003 RMK AO2 SLP170 T01560067 10200 20150 53008 $
Loading
Personal Weather Stations






























Interactive Weather Map New forecast layout! Learn more

10-Day Weather Forecast

Advertisements
Track Severe Weather on mobile